Casstown, OH

11:05 AM EDT on octombrie 21, 2014 (GMT -0400)
Springfield-Beckley Municipal | Change Station
CLOSE
Current Station
Aeroport
Location: Springfield,
Elevation: 1050 ft
Nearby Weather Stations

Elev 1050 ft 39.84 °N, 83.84 °W | Updated 9 minutes ago

Cer acoperit
Cer acoperit
49 °F
Feels Like 49 °F
N
15
Vânt variabil Vânt from NNV

astăzi
High -- | Low -- °F
--% Chance of Precip.
Ieri
High -- | Low -- °F
Precip. -- inch
7:53 AM 6:48 PM
Semilună în descreştere, 5% visible
Presiunea 30.03 inch
Vizibilitatea 10.0 mile
Nori Cer în general noros 1900 ft
Cer în general noros 2600 ft
Punctul de rouă 44 °F
Umiditatea 83%
Precipitaţii 0.00 inch
Adâncimea zăpezii Not available.
UV 2 out of 12
Pollen 1.80 out of 12
Ozon Bună
PM2.5 Bună
Flu Activity Sporadic
METAR KSGH 211456Z AUTO 33013KT 10SM BKN019 BKN026 09/07 A3002 RMK AO2 51018 T00940066 SLP168

More Conditions Fewer Conditions

Presiunea 30.03 inch
Vizibilitatea 10.0 mile
Nori Cer în general noros 1900 ft
Cer în general noros 2600 ft
Punctul de rouă 44 °F
Umiditatea 83%
Precipitaţii 0.00 inch
Adâncimea zăpezii Not available.
UV 2 out of 12
Pollen 1.80 out of 12
Ozon Bună
PM2.5 Bună
Flu Activity Sporadic
METAR KSGH 211456Z AUTO 33013KT 10SM BKN019 BKN026 09/07 A3002 RMK AO2 51018 T00940066 SLP168

More Conditions Fewer Conditions

10-Day Weather Forecast

Almanac

Astronomie

Oct. 21, 2014 Răsărit Apus
Timpul Actual 7:53 AM EDT 6:48 PM EDT
Crepusculul Civil 7:25 AM EDT 7:15 PM EDT
Crepusculul nautic 6:54 AM EDT 7:47 PM EDT
Răsărit Astronomic 6:22 AM EDT 8:18 PM EDT
Luna 5:36 AM EDT 5:41 PM EDT
Durata zilei lumină 11h 49m
Lungimea zilei
10h 54m
Tomorrow will be 2m 29s shorter.
Semilună în descreştere, 5% of the Moon is Illuminated
astăzi
Semilună în descreştere
Oct 23
New
Oct 30
Primul pătrar
Nov 6
Lună plină
Nov 14
Ultimul pătrar

Extremele de azi

State Highs State Lows

Community

WunderPhotos

Upload Photos

1,763,682 photos uploaded!

WunderBlogs® & News

By Dr. Jeff Masters
Director of Meteorology, Weather Underground
By Kari Strenfel
Meteorologist, Weather Underground
By Christopher C. Burt
Weather Historian, Weather Underground
October 21, 2014
October 21, 2014
October 21, 2014

Nearby

Calitatea aerului

  Calitatea aerului Index de calitate a aerului Poluat
Ieri Bună
PM2.5
Ieri Bună
OZONE
actual Bună
PM2.5
actual Bună
OZONE
marţi Bună
PM2.5
marţi Bună
OZONE
miercuri Bună
PM2.5
miercuri Bună
OZONE
joi Bună
PM2.5
joi Bună
OZONE
vineri Bună
PM2.5
vineri Bună
OZONE

Adâncimea zapezii

Station Depth Elevation
No new snow has been reported.

Earthquake Activity

Oraş Distance Mag. Time & Date
No recent earthquake activity has been reported nearby.
Minimum magnitude displayed is 2.5.

Coastal Water Temperatures

Locul Temperatura
No Stations Reporting

Nearby Weather Stations